Time;durP1;ratioP1;P1;durP2;ratioP2;P2;SDS_P1;SDS_P2;PMS_P1;PMS_P2;Temp;Humidity;BMP_temperature;BMP_pressure;BME280_temperature;BME280_humidity;BME280_pressure;Samples;Min_cycle;Max_cycle;Signal;HPM_P1;HPM_P2
2022/02/08 00:01:38;;;;;;;16.67;3.42;;;;;;;5.94;69.56;102307.56;5110487;28;20097;-70
2022/02/08 00:04:05;;;;;;;22.73;3.53;;;;;;;6.00;69.83;102301.97;5108767;28;20541;-70
2022/02/08 00:06:41;;;;;;;26.15;3.13;;;;;;;6.06;69.52;102298.16;5108166;28;20043;-70
2022/02/08 00:09:09;;;;;;;15.88;2.90;;;;;;;6.06;69.52;102296.38;5108776;28;20048;-70
2022/02/08 00:11:36;;;;;;;18.75;3.42;;;;;;;5.99;69.72;102313.47;5092191;28;20096;-70
2022/02/08 00:14:04;;;;;;;14.95;3.30;;;;;;;5.93;70.59;102309.34;5091456;28;20044;-70
2022/02/08 00:16:30;;;;;;;17.33;3.45;;;;;;;6.01;70.63;102305.47;5096457;28;20043;-70
2022/02/08 00:18:57;;;;;;;24.02;3.78;;;;;;;5.93;70.53;102296.19;5109961;28;20039;-70
2022/02/08 00:21:24;;;;;;;25.83;3.85;;;;;;;6.12;71.57;102298.66;5075372;28;20044;-70
2022/02/08 00:23:51;;;;;;;22.17;3.72;;;;;;;6.23;71.16;102307.75;5110027;28;20036;-70
2022/02/08 00:26:17;;;;;;;18.48;3.95;;;;;;;6.09;71.23;102297.97;5109654;28;20507;-70
2022/02/08 00:28:44;;;;;;;22.48;3.70;;;;;;;6.13;71.72;102296.84;5110207;28;20427;-70
2022/02/08 00:31:11;;;;;;;24.55;3.50;;;;;;;6.04;72.14;102290.34;5107799;28;20074;-70
2022/02/08 00:33:38;;;;;;;20.35;3.67;;;;;;;6.14;72.75;102288.03;5109749;28;20043;-70
2022/02/08 00:36:05;;;;;;;24.23;4.45;;;;;;;6.06;73.10;102282.38;5109812;28;20522;-70
2022/02/08 00:38:34;;;;;;;21.60;4.72;;;;;;;6.07;73.41;102276.97;5109394;28;20048;-70
2022/02/08 00:41:03;;;;;;;22.80;4.28;;;;;;;6.02;73.64;102270.28;5091821;28;20044;-70
2022/02/08 00:43:37;;;;;;;23.10;3.97;;;;;;;6.06;73.67;102277.09;5091877;28;20036;-71
2022/02/08 00:46:14;;;;;;;27.38;4.35;;;;;;;6.14;74.42;102273.06;5091716;28;20100;-70
2022/02/08 00:48:43;;;;;;;23.70;4.15;;;;;;;6.09;74.36;102274.25;5091338;28;20051;-70
2022/02/08 00:51:11;;;;;;;23.92;3.90;;;;;;;6.11;75.01;102281.16;5074921;28;20047;-70
2022/02/08 00:53:37;;;;;;;24.65;4.90;;;;;;;6.10;74.81;102279.44;5109235;28;20500;-70
2022/02/08 00:56:05;;;;;;;29.13;4.78;;;;;;;6.18;75.38;102273.72;5091592;28;20048;-70
2022/02/08 00:58:32;;;;;;;28.55;4.28;;;;;;;5.99;75.94;102275.75;5108559;28;20047;-70
2022/02/08 01:01:00;;;;;;;25.27;4.85;;;;;;;6.01;76.61;102279.97;5091260;28;20058;-70
2022/02/08 01:03:27;;;;;;;33.40;4.78;;;;;;;5.92;77.99;102277.81;5107425;28;20048;-70
2022/02/08 01:06:04;;;;;;;23.17;4.13;;;;;;;5.88;78.62;102290.31;5091266;28;20554;-70
2022/02/08 01:08:34;;;;;;;24.90;4.25;;;;;;;5.87;79.18;102275.44;5077583;28;20098;-70
2022/02/08 01:11:05;;;;;;;26.13;3.83;;;;;;;5.87;79.74;102282.50;5095464;28;20047;-69
2022/02/08 01:13:31;;;;;;;24.77;3.90;;;;;;;5.83;79.88;102286.25;5077964;28;20442;-69
2022/02/08 01:15:58;;;;;;;26.10;4.72;;;;;;;5.82;80.21;102287.16;5095309;28;20050;-71
2022/02/08 01:18:27;;;;;;;26.20;4.50;;;;;;;5.77;80.53;102293.53;5077157;28;20067;-70
2022/02/08 01:20:54;;;;;;;22.92;4.30;;;;;;;5.75;81.45;102303.31;5095294;28;20048;-70
2022/02/08 01:23:20;;;;;;;21.80;4.63;;;;;;;5.74;81.58;102291.06;5077085;28;20047;-70
2022/02/08 01:25:55;;;;;;;22.25;4.45;;;;;;;5.62;82.15;102291.78;5095251;28;20044;-70
2022/02/08 01:28:32;;;;;;;26.80;4.72;;;;;;;5.62;83.26;102289.13;5095376;28;20119;-70
2022/02/08 01:31:02;;;;;;;21.42;4.70;;;;;;;5.55;83.25;102298.31;5060477;28;20043;-70
2022/02/08 01:36:28;;;;;;;17.58;4.30;;;;;;;5.55;84.60;102282.50;5060461;28;20055;-70
2022/02/08 01:39:30;;;;;;;27.25;4.18;;;;;;;5.54;85.13;102286.91;5091003;28;20493;-70
2022/02/08 01:42:20;;;;;;;21.58;4.13;;;;;;;5.58;84.99;102282.31;5089483;28;20056;-70
2022/02/08 01:44:39;;;;;;;23.58;4.32;;;;;;;5.47;86.30;102290.78;5080295;28;20066;-70
2022/02/08 01:47:25;;;;;;;30.25;5.05;;;;;;;5.54;86.95;102286.06;5094877;28;20043;-70
2022/02/08 01:50:10;;;;;;;25.58;4.72;;;;;;;5.42;87.74;102284.09;5076615;28;20123;-70
2022/02/08 01:52:39;;;;;;;22.55;4.65;;;;;;;5.42;87.29;102281.44;5076765;28;20040;-70
2022/02/08 01:55:10;;;;;;;29.30;4.82;;;;;;;5.39;87.73;102282.47;5094657;28;20948;-70
2022/02/08 01:57:38;;;;;;;19.65;4.40;;;;;;;5.33;88.63;102277.53;5042946;28;20080;-70
2022/02/08 02:00:08;;;;;;;21.67;4.60;;;;;;;5.35;87.54;102271.25;5076450;28;20052;-70
2022/02/08 02:02:41;;;;;;;16.58;5.10;;;;;;;5.36;88.09;102278.22;5094546;28;20043;-70
2022/02/08 02:05:15;;;;;;;16.25;4.90;;;;;;;5.52;87.44;102278.25;5067701;28;20056;-70
2022/02/08 02:07:51;;;;;;;20.65;4.72;;;;;;;5.49;87.38;102272.28;5076387;28;20451;-70
2022/02/08 02:10:22;;;;;;;23.15;4.85;;;;;;;5.52;87.28;102280.03;5062070;28;20090;-70
2022/02/08 02:13:14;;;;;;;19.52;4.82;;;;;;;5.44;87.32;102271.69;5094607;28;20063;-70
2022/02/08 02:15:43;;;;;;;;;;;;;;;5.36;88.00;102277.38;5081022;28;20054;-70
2022/02/08 02:18:09;;;;;;;17.65;3.92;;;;;;;5.32;88.48;102268.78;5096715;28;19969;-69
2022/02/08 02:20:36;;;;;;;21.98;5.45;;;;;;;5.41;88.37;102269.25;5078359;28;20040;-69
2022/02/08 02:23:04;;;;;;;20.98;4.80;;;;;;;5.34;88.18;102255.56;5094212;28;20048;-69
2022/02/08 02:25:33;;;;;;;24.85;4.80;;;;;;;5.39;88.20;102257.00;5076623;28;20044;-68
2022/02/08 02:28:04;;;;;;;18.98;4.90;;;;;;;5.50;88.36;102266.09;5094336;28;20040;-69
2022/02/08 02:30:33;;;;;;;20.48;4.90;;;;;;;5.51;87.81;102262.53;5094467;28;20044;-69
2022/02/08 02:33:05;;;;;;;22.60;4.80;;;;;;;5.63;87.89;102250.50;5094015;28;20055;-69
2022/02/08 02:35:32;;;;;;;17.38;4.47;;;;;;;5.51;88.21;102254.63;5094432;28;20068;-68
2022/02/08 02:38:03;;;;;;;17.45;4.90;;;;;;;5.58;88.40;102246.34;5071948;28;20402;-70
2022/02/08 02:40:33;;;;;;;17.10;4.95;;;;;;;5.64;87.99;102234.59;5076017;28;20528;-70
2022/02/08 02:43:02;;;;;;;18.30;4.50;;;;;;;5.52;88.78;102236.13;5093991;28;20062;-70
2022/02/08 02:45:31;;;;;;;18.25;4.97;;;;;;;5.60;88.45;102232.22;5093792;28;20508;-70
2022/02/08 02:47:58;;;;;;;23.65;4.85;;;;;;;5.49;89.94;102231.00;5093654;28;20101;-71
2022/02/08 02:50:32;;;;;;;19.00;4.93;;;;;;;5.72;88.47;102228.91;5076547;28;20144;-70
2022/02/08 02:52:59;;;;;;;18.02;5.10;;;;;;;5.65;89.18;102224.91;5093317;28;20048;-70
2022/02/08 02:55:31;;;;;;;15.68;4.75;;;;;;;5.82;88.84;102224.84;5093494;28;20408;-70
2022/02/08 02:57:59;;;;;;;14.35;5.38;;;;;;;5.51;89.58;102231.81;5093180;28;20055;-68
2022/02/08 03:01:02;;;;;;;19.80;4.80;;;;;;;5.54;89.65;102218.44;5093237;28;20127;-68
2022/02/08 03:03:41;;;;;;;12.65;4.25;;;;;;;5.66;89.60;102230.09;5058735;28;20070;-70
2022/02/08 03:17:27;;;;;;;21.00;4.40;;;;;;;5.80;89.42;102225.84;5075364;28;20082;-70
2022/02/08 03:19:58;;;;;;;17.27;4.15;;;;;;;5.99;89.10;102241.50;5078152;28;20411;-70
2022/02/08 03:22:26;;;;;;;17.17;4.72;;;;;;;5.82;89.09;102226.59;5093246;28;20080;-70
2022/02/08 03:24:52;;;;;;;18.15;5.07;;;;;;;5.92;90.03;102233.06;5092760;28;20043;-70
2022/02/08 03:27:20;;;;;;;14.35;4.72;;;;;;;5.78;89.81;102228.56;5092937;28;20044;-70
2022/02/08 03:29:50;;;;;;;15.25;4.80;;;;;;;5.94;89.37;102225.91;5092910;28;20044;-70
2022/02/08 03:32:19;;;;;;;17.35;5.20;;;;;;;5.91;89.29;102219.03;5092717;28;20040;-70
2022/02/08 03:34:46;;;;;;;17.00;5.78;;;;;;;5.82;90.38;102209.03;5091296;28;20036;-70
2022/02/08 03:37:14;;;;;;;20.38;6.05;;;;;;;5.90;90.36;102221.75;5058226;28;20073;-70
2022/02/08 03:39:43;;;;;;;21.50;5.60;;;;;;;6.02;89.68;102234.25;5072891;28;20594;-70
2022/02/08 03:42:22;;;;;;;13.93;5.13;;;;;;;5.95;89.65;102228.50;5092287;28;20080;-69
2022/02/08 03:44:57;;;;;;;15.27;5.18;;;;;;;5.97;90.19;102231.03;5075887;28;20489;-70
2022/02/08 03:47:25;;;;;;;14.90;5.57;;;;;;;6.16;89.76;102228.19;5059037;28;20047;-70
2022/02/08 03:49:57;;;;;;;15.40;5.53;;;;;;;6.14;90.35;102230.06;5092976;28;20492;-70
2022/02/08 03:52:23;;;;;;;14.27;5.28;;;;;;;6.18;89.89;102236.00;5092317;28;20044;-70
2022/02/08 03:54:54;;;;;;;15.52;5.07;;;;;;;6.17;89.71;102240.44;5067133;28;20043;-70
2022/02/08 03:57:24;;;;;;;17.00;5.97;;;;;;;6.05;89.95;102243.75;5074275;28;20075;-70
2022/02/08 03:59:53;;;;;;;15.98;5.28;;;;;;;6.19;89.48;102251.72;5088104;28;20062;-71
2022/02/08 04:02:31;;;;;;;16.45;6.57;;;;;;;6.14;90.25;102244.06;5074677;28;20054;-70
2022/02/08 04:05:13;;;;;;;17.48;6.15;;;;;;;6.27;89.70;102246.84;5084432;28;20111;-70
2022/02/08 04:07:55;;;;;;;15.23;5.85;;;;;;;6.30;90.22;102237.94;5067913;27;1217316;-69
2022/02/08 04:10:34;;;;;;;15.88;6.63;;;;;;;6.36;89.20;102239.34;5112056;27;20387;-67
2022/02/08 04:13:13;;;;;;;15.48;6.40;;;;;;;6.34;89.12;102242.06;5109203;28;20032;-68
2022/02/08 04:16:12;;;;;;;17.08;6.80;;;;;;;6.19;90.23;102216.63;5097485;27;20129;-68
2022/02/08 04:18:50;;;;;;;16.27;7.00;;;;;;;6.19;91.19;102258.78;5054238;28;20045;-68
2022/02/08 04:41:44;;;;;;;17.30;8.38;;;;;;;6.29;91.51;102233.59;5110636;27;20328;-70
2022/02/08 04:45:09;;;;;;;19.23;8.70;;;;;;;6.34;90.88;102248.19;5061950;28;20449;-69
2022/02/08 04:47:28;;;;;;;20.00;8.90;;;;;;;6.46;90.71;102233.47;5110880;27;20331;-70
2022/02/08 04:50:06;;;;;;;21.30;8.80;;;;;;;6.36;91.12;102248.09;5131400;27;20341;-68
2022/02/08 04:52:47;;;;;;;17.75;8.48;;;;;;;6.56;90.52;102260.13;5090355;28;20171;-70
2022/02/08 04:58:25;;;;;;;15.00;8.05;;;;;;;6.60;91.08;102260.78;5098953;27;20134;-69
2022/02/08 05:01:26;;;;;;;16.63;8.25;;;;;;;6.52;92.23;102259.44;5111052;27;20364;-68
2022/02/08 05:45:10;;;;;;;14.45;8.13;;;;;;;6.75;91.82;102254.59;5093803;27;20390;-69
2022/02/08 05:47:51;;;;;;;17.23;8.00;;;;;;;6.70;93.22;102259.31;5095358;27;20643;-69
2022/02/08 05:56:09;;;;;;;17.25;7.93;;;;;;;6.77;92.14;102255.34;5104530;27;20121;-70
2022/02/08 05:58:48;;;;;;;15.95;8.32;;;;;;;6.88;92.71;102246.81;5130563;27;20354;-70
2022/02/08 06:01:30;;;;;;;16.15;8.48;;;;;;;6.72;93.58;102241.59;5117461;27;20851;-70
2022/02/08 06:04:10;;;;;;;16.30;8.45;;;;;;;6.69;92.56;102257.59;5098421;28;20044;-70
2022/02/08 06:06:37;;;;;;;15.85;8.52;;;;;;;6.80;93.33;102254.31;5103246;28;20058;-70
2022/02/08 06:09:04;;;;;;;17.08;8.55;;;;;;;6.86;92.78;102254.81;5108956;28;20035;-70
2022/02/08 06:11:35;;;;;;;15.82;8.93;;;;;;;6.81;92.77;102248.09;5110420;28;20040;-69
2022/02/08 06:14:04;;;;;;;18.50;8.65;;;;;;;6.81;93.49;102251.59;5110994;28;20040;-70
2022/02/08 06:16:32;;;;;;;17.42;9.02;;;;;;;6.79;93.47;102247.34;5108558;28;20043;-71
2022/02/08 06:18:58;;;;;;;13.70;8.15;;;;;;;6.84;93.02;102247.91;5112601;28;20093;-70
2022/02/08 06:21:25;;;;;;;16.30;8.40;;;;;;;6.84;93.32;102246.13;5095968;28;20074;-70
2022/02/08 06:23:52;;;;;;;20.00;8.38;;;;;;;6.81;93.39;102234.91;5107849;28;20055;-70
2022/02/08 06:26:21;;;;;;;14.82;8.10;;;;;;;6.76;93.81;102242.25;5113789;28;20067;-70
2022/02/08 06:28:57;;;;;;;16.58;7.88;;;;;;;6.69;93.72;102229.47;5109772;28;20046;-70
2022/02/08 06:31:24;;;;;;;15.35;7.53;;;;;;;6.70;94.67;102231.13;5109807;28;20040;-70
2022/02/08 06:33:50;;;;;;;14.82;7.75;;;;;;;6.67;94.80;102219.91;5107156;28;20048;-70
2022/02/08 06:36:17;;;;;;;14.23;7.78;;;;;;;6.87;94.06;102237.19;5109464;28;20044;-70
2022/02/08 06:38:44;;;;;;;15.73;7.32;;;;;;;6.80;93.59;102241.13;5093532;28;20098;-69
2022/02/08 06:41:12;;;;;;;13.02;6.82;;;;;;;6.76;94.38;102235.19;5107875;28;20032;-70
2022/02/08 06:43:39;;;;;;;12.65;7.03;;;;;;;6.81;94.37;102242.84;5109471;28;20081;-69
2022/02/08 06:46:05;;;;;;;14.48;7.05;;;;;;;6.81;93.36;102237.56;5107836;28;20059;-70
2022/02/08 06:48:32;;;;;;;12.70;7.18;;;;;;;6.66;94.61;102228.78;5091019;28;20051;-70
2022/02/08 06:51:00;;;;;;;16.98;8.40;;;;;;;6.64;95.43;102236.78;5074447;28;20131;-70
2022/02/08 06:53:27;;;;;;;14.80;8.82;;;;;;;6.78;95.32;102243.84;5107664;28;20207;-70
2022/02/08 06:55:54;;;;;;;15.75;8.40;;;;;;;6.62;95.37;102230.75;5107649;28;20040;-70
2022/02/08 06:58:24;;;;;;;18.52;8.18;;;;;;;6.84;94.89;102243.50;5070371;28;20055;-70
2022/02/08 07:00:53;;;;;;;15.57;8.05;;;;;;;6.84;95.44;102248.78;5105515;28;20047;-71
2022/02/08 07:03:21;;;;;;;16.15;8.50;;;;;;;6.90;94.60;102245.75;5107537;28;20044;-71
2022/02/08 07:05:47;;;;;;;17.88;8.15;;;;;;;6.83;94.88;102249.69;5091582;28;20523;-70
2022/02/08 07:08:14;;;;;;;19.60;8.30;;;;;;;6.80;95.64;102246.41;5106825;28;20508;-70
2022/02/08 07:10:44;;;;;;;22.02;8.88;;;;;;;6.82;95.21;102248.03;5108251;28;20042;-70
2022/02/08 07:13:11;;;;;;;18.48;8.43;;;;;;;6.83;95.51;102254.13;5094115;28;20496;-70
2022/02/08 07:15:38;;;;;;;15.82;7.82;;;;;;;6.84;95.19;102258.47;5083785;28;20101;-69
2022/02/08 07:18:05;;;;;;;15.70;8.55;;;;;;;6.89;94.87;102253.75;5095099;28;20044;-70
2022/02/08 07:20:32;;;;;;;15.90;8.30;;;;;;;7.00;94.33;102253.94;5095577;28;20032;-70
2022/02/08 07:22:59;;;;;;;16.25;7.85;;;;;;;6.99;94.25;102259.34;5061005;28;20040;-70
2022/02/08 07:25:27;;;;;;;18.30;7.75;;;;;;;7.01;94.05;102271.47;5087460;28;20131;-70
2022/02/08 07:27:55;;;;;;;13.90;7.57;;;;;;;7.12;93.99;102265.56;5081254;28;20044;-70
2022/02/08 07:30:22;;;;;;;12.82;7.95;;;;;;;7.15;93.90;102265.38;5084608;28;20151;-70
2022/02/08 07:32:52;;;;;;;16.38;7.20;;;;;;;7.18;94.12;102259.88;5093922;28;20069;-70
2022/02/08 07:35:44;;;;;;;17.13;8.20;;;;;;;7.25;93.65;102263.84;5087331;28;20044;-70
2022/02/08 07:38:10;;;;;;;17.50;8.55;;;;;;;7.23;93.31;102267.53;5095033;28;20040;-70
2022/02/08 07:43:22;;;;;;;20.35;9.43;;;;;;;7.33;92.61;102271.31;5095212;28;20459;-69
2022/02/08 07:46:08;;;;;;;15.98;9.13;;;;;;;7.19;93.46;102272.16;5094845;28;20037;-70
2022/02/08 07:48:35;;;;;;;19.85;9.63;;;;;;;7.24;93.78;102271.84;5093496;28;20051;-70
2022/02/08 07:51:02;;;;;;;18.67;9.98;;;;;;;7.38;92.69;102284.22;5095023;28;20044;-68
2022/02/08 07:53:30;;;;;;;22.45;11.05;;;;;;;7.28;93.20;102268.94;5094349;28;20040;-68
2022/02/08 07:55:56;;;;;;;19.90;9.75;;;;;;;7.39;92.63;102276.19;5093488;28;20098;-70
2022/02/08 07:58:24;;;;;;;19.55;9.98;;;;;;;7.52;92.71;102278.91;5094295;28;20040;-69
2022/02/08 08:00:51;;;;;;;20.00;10.15;;;;;;;7.40;93.15;102274.41;5094064;28;20048;-69
2022/02/08 08:03:18;;;;;;;20.17;9.35;;;;;;;7.52;92.42;102278.06;5091926;28;20044;-69
2022/02/08 08:05:45;;;;;;;18.85;9.73;;;;;;;7.57;91.88;102271.56;5094301;28;20043;-69
2022/02/08 08:08:14;;;;;;;22.35;9.93;;;;;;;7.76;91.57;102273.03;5092492;28;20404;-69
2022/02/08 08:10:45;;;;;;;19.38;9.35;;;;;;;7.60;91.89;102273.97;5084629;28;20476;-70
2022/02/08 08:13:16;;;;;;;22.17;10.80;;;;;;;7.71;92.35;102273.31;5084897;28;20046;-69
2022/02/08 08:15:51;;;;;;;22.40;9.50;;;;;;;7.69;91.55;102275.19;5089750;28;20559;-70
2022/02/08 08:18:37;;;;;;;24.48;10.02;;;;;;;7.76;91.18;102268.56;5091350;28;20110;-69
2022/02/08 08:21:04;;;;;;;16.60;8.52;;;;;;;7.84;90.43;102257.50;5085116;28;20043;-72
2022/02/08 08:23:30;;;;;;;19.45;9.90;;;;;;;7.81;89.93;102263.00;5091758;28;20488;-71
2022/02/08 08:25:58;;;;;;;19.17;9.43;;;;;;;7.61;91.07;102270.41;5093887;28;20044;-71
2022/02/08 08:28:25;;;;;;;20.23;9.73;;;;;;;7.70;91.21;102266.34;5100283;28;20416;-70
2022/02/08 08:30:52;;;;;;;22.08;9.82;;;;;;;7.64;90.92;102266.72;5090468;28;20048;-70
2022/02/08 08:33:19;;;;;;;21.77;10.32;;;;;;;7.68;91.06;102257.66;5093799;28;20052;-70
2022/02/08 08:36:01;;;;;;;18.25;9.55;;;;;;;7.84;90.65;102265.44;5093584;28;20032;-70
2022/02/08 08:38:31;;;;;;;22.77;8.90;;;;;;;7.82;90.33;102275.25;5091556;28;20044;-70
2022/02/08 08:49:30;;;;;;;22.55;9.73;;;;;;;7.90;89.42;102261.56;5091060;28;20070;-70
2022/02/08 08:51:57;;;;;;;18.80;8.85;;;;;;;7.94;89.79;102269.19;5070451;28;20067;-70
2022/02/08 08:54:27;;;;;;;18.98;8.68;;;;;;;7.94;89.44;102274.47;5072662;28;20051;-70
2022/02/08 08:56:53;;;;;;;19.33;9.68;;;;;;;8.03;89.32;102279.16;5091994;28;20093;-70
2022/02/08 08:59:20;;;;;;;21.48;8.88;;;;;;;7.96;89.05;102275.22;5067161;28;20055;-70
2022/02/08 09:01:49;;;;;;;18.27;8.70;;;;;;;8.03;89.14;102279.16;5092353;28;20040;-70
2022/02/08 09:04:18;;;;;;;20.20;8.63;;;;;;;8.05;88.85;102284.34;5090287;28;20554;-70
2022/02/08 09:07:04;;;;;;;21.40;9.27;;;;;;;8.04;89.00;102280.00;5092209;28;20048;-69
2022/02/08 09:09:34;;;;;;;20.35;9.18;;;;;;;8.01;89.71;102286.34;5063830;28;20041;-70
2022/02/08 09:12:14;;;;;;;19.52;8.00;;;;;;;8.13;88.48;102286.47;5088312;28;20546;-71
2022/02/08 09:15:00;;;;;;;17.27;7.63;;;;;;;8.21;88.41;102278.91;5085933;28;20089;-70
2022/02/08 09:20:34;;;;;;;24.45;9.65;;;;;;;8.32;88.12;102291.44;5092781;28;20043;-69
2022/02/08 09:25:58;;;;;;;25.38;9.40;;;;;;;8.36;87.58;102301.69;5092696;28;20040;-70
2022/02/08 09:28:41;;;;;;;18.30;8.55;;;;;;;8.37;87.19;102303.41;5091694;28;20052;-70
2022/02/08 09:31:13;;;;;;;21.25;9.32;;;;;;;8.56;86.88;102295.09;5091781;28;20036;-70
2022/02/08 09:33:40;;;;;;;22.60;9.63;;;;;;;8.56;86.78;102291.63;5090075;28;20050;-70
2022/02/08 09:36:06;;;;;;;19.20;8.23;;;;;;;8.71;86.42;102309.09;5074622;28;20044;-70
2022/02/08 09:38:35;;;;;;;21.88;8.57;;;;;;;8.70;86.25;102307.41;5060529;28;20657;-70
2022/02/08 09:41:02;;;;;;;20.48;9.40;;;;;;;8.84;85.59;102312.63;5091233;28;20400;-71
2022/02/08 09:43:31;;;;;;;19.30;9.20;;;;;;;8.61;86.80;102313.31;5093068;28;20040;-71
2022/02/08 09:46:01;;;;;;;17.90;8.43;;;;;;;8.79;85.82;102314.72;5091596;28;20492;-71
2022/02/08 09:48:41;;;;;;;20.85;8.50;;;;;;;8.81;86.17;102311.97;5090894;28;20042;-71
2022/02/08 09:51:10;;;;;;;21.20;8.40;;;;;;;8.80;85.58;102334.97;5091354;28;20036;-71
2022/02/08 09:53:41;;;;;;;18.45;8.60;;;;;;;8.80;85.62;102321.72;5088894;28;20381;-71
2022/02/08 09:56:11;;;;;;;19.27;7.25;;;;;;;8.71;85.89;102321.47;5089680;28;20522;-71
2022/02/08 09:58:38;;;;;;;14.23;6.72;;;;;;;8.72;85.97;102323.19;5091289;28;20040;-71
2022/02/08 10:01:14;;;;;;;19.30;8.35;;;;;;;8.85;85.76;102324.03;5091714;28;20040;-71
2022/02/08 10:03:50;;;;;;;19.48;7.70;;;;;;;8.80;85.79;102331.44;5054476;28;20060;-71
2022/02/08 10:06:17;;;;;;;16.80;6.80;;;;;;;8.76;85.59;102320.22;5090704;28;20047;-72
2022/02/08 10:08:45;;;;;;;15.90;7.50;;;;;;;8.69;85.92;102331.31;5091253;28;20135;-71
2022/02/08 10:11:22;;;;;;;19.25;7.32;;;;;;;8.78;85.49;102328.91;5092556;28;20044;-71
2022/02/08 10:14:00;;;;;;;20.88;7.38;;;;;;;8.80;85.96;102329.66;5099897;28;20496;-71
2022/02/08 10:22:13;;;;;;;14.88;6.35;;;;;;;8.81;85.54;102334.00;5120074;27;20387;-72
2022/02/08 10:24:49;;;;;;;18.30;7.57;;;;;;;9.00;84.50;102338.03;5109642;28;20054;-71
2022/02/08 10:27:28;;;;;;;40.35;12.82;;;;;;;8.97;85.00;102330.31;5108923;28;20047;-69
2022/02/08 10:30:12;;;;;;;20.70;7.32;;;;;;;8.92;84.64;102332.44;5110405;28;20047;-69
2022/02/08 10:38:24;;;;;;;17.88;6.03;;;;;;;9.05;84.16;102316.56;5090055;28;20404;-70
2022/02/08 10:40:55;;;;;;;20.85;6.85;;;;;;;9.11;84.76;102311.66;5121097;28;20036;-70
2022/02/08 10:43:22;;;;;;;11.93;5.18;;;;;;;9.10;83.45;102317.09;5107746;28;20051;-70
2022/02/08 10:45:49;;;;;;;14.32;5.40;;;;;;;9.15;83.13;102315.81;5108512;28;20040;-70
2022/02/08 10:48:22;;;;;;;20.70;5.10;;;;;;;9.08;83.35;102300.44;5109481;28;20050;-70
2022/02/08 10:50:55;;;;;;;15.23;4.57;;;;;;;9.11;82.84;102316.94;5080651;28;20127;-70
2022/02/08 10:53:24;;;;;;;13.30;5.10;;;;;;;9.12;83.68;102316.00;5107504;28;20462;-70
2022/02/08 10:58:48;;;;;;;16.75;5.00;;;;;;;9.36;82.16;102315.25;5124388;27;20446;-70
2022/02/08 11:01:20;;;;;;;16.73;5.15;;;;;;;9.15;82.65;102314.94;5106418;28;20411;-71
2022/02/08 11:06:36;;;;;;;18.20;4.75;;;;;;;9.16;82.90;102314.84;5101764;27;20120;-71
2022/02/08 11:09:22;;;;;;;12.52;4.75;;;;;;;9.29;82.55;102306.03;5070195;28;20115;-71
2022/02/08 11:12:30;;;;;;;10.80;4.45;;;;;;;9.39;81.67;102315.06;5089421;28;20396;-71
2022/02/08 11:15:02;;;;;;;15.38;5.00;;;;;;;9.24;82.52;102293.16;5089136;28;20042;-70
2022/02/08 11:20:25;;;;;;;15.50;4.20;;;;;;;9.32;80.60;102305.84;5083040;28;20048;-70
2022/02/08 11:23:15;;;;;;;13.35;3.58;;;;;;;9.35;80.96;102300.31;5064122;28;20119;-71
2022/02/08 11:25:44;;;;;;;11.65;3.80;;;;;;;9.20;81.44;102292.50;5070924;28;20111;-71
2022/02/08 11:28:22;;;;;;;12.35;3.63;;;;;;;9.44;80.39;102293.53;5050277;28;20450;-71
2022/02/08 11:40:19;;;;;;;10.63;3.15;;;;;;;9.45;79.41;102276.69;5127629;27;20050;-70
2022/02/08 11:42:56;;;;;;;9.43;3.13;;;;;;;9.46;78.99;102278.38;5100621;28;20110;-70
2022/02/08 11:48:29;;;;;;;16.00;3.42;;;;;;;9.49;79.25;102281.63;5082901;27;20382;-71
2022/02/08 11:53:48;;;;;;;10.70;2.95;;;;;;;9.58;78.89;102282.78;5156093;27;20390;-71
2022/02/08 11:56:25;;;;;;;13.95;2.95;;;;;;;9.68;79.03;102277.66;5138548;27;20071;-71
2022/02/08 11:59:13;;;;;;;12.00;3.00;;;;;;;9.60;78.67;102272.94;5150964;27;20042;-71
2022/02/08 12:04:41;;;;;;;11.38;3.00;;;;;;;9.64;78.78;102300.03;5076695;27;20349;-71
2022/02/08 12:07:15;;;;;;;11.38;3.42;;;;;;;9.72;78.54;102293.25;5063180;28;20162;-71
2022/02/08 12:10:04;;;;;;;8.23;2.78;;;;;;;9.66;78.39;102299.00;5050428;28;20040;-70
2022/02/08 12:53:21;;;;;;;11.55;2.67;;;;;;;10.06;77.90;102263.41;5054945;28;20044;-71
2022/02/08 12:57:52;;;;;;;10.02;2.50;;;;;;;10.05;78.08;102261.75;5060679;28;20470;-71
2022/02/08 13:04:10;;;;;;;10.77;2.47;;;;;;;10.16;77.15;102269.75;5120847;27;20173;-71
2022/02/08 13:06:39;;;;;;;11.27;2.30;;;;;;;10.18;76.63;102271.31;5098086;28;20057;-71
2022/02/08 14:14:26;;;;;;;10.07;2.30;;;;;;;10.41;72.18;102255.53;5102516;28;20044;-72
2022/02/08 14:22:46;;;;;;;18.42;2.55;;;;;;;10.29;72.52;102251.94;5103679;28;20043;-71
2022/02/08 14:25:02;;;;;;;10.02;2.30;;;;;;;10.40;72.52;102258.28;5093563;28;20119;-70
2022/02/08 14:30:44;;;;;;;9.73;2.53;;;;;;;10.22;73.16;102253.38;5096760;28;20123;-68
2022/02/08 14:36:22;;;;;;;12.55;2.50;;;;;;;10.26;73.05;102260.16;5102078;28;20063;-69
2022/02/08 14:57:32;;;;;;;13.07;2.83;;;;;;;10.13;74.39;102277.91;5108127;28;20043;-70
2022/02/08 15:06:43;;;;;;;9.20;2.50;;;;;;;10.08;75.00;102288.88;5106516;28;20416;-70
2022/02/08 15:09:11;;;;;;;14.55;2.60;;;;;;;10.06;75.46;102281.97;5107779;28;20043;-70
2022/02/08 15:14:27;;;;;;;9.48;2.60;;;;;;;10.17;75.17;102274.09;5106746;28;20036;-70
2022/02/08 15:16:54;;;;;;;13.13;2.72;;;;;;;10.10;75.82;102281.66;5072159;28;20138;-70
2022/02/08 15:19:22;;;;;;;8.48;2.42;;;;;;;10.17;75.75;102279.41;5106385;28;20027;-70
2022/02/08 15:21:49;;;;;;;9.27;2.35;;;;;;;10.16;75.94;102280.34;5093700;28;20067;-70
2022/02/08 15:24:15;;;;;;;7.10;2.20;;;;;;;10.18;76.25;102276.63;5076191;28;20135;-68
2022/02/08 15:26:46;;;;;;;6.68;2.30;;;;;;;10.22;75.74;102274.59;5084998;28;20040;-69
2022/02/08 15:29:15;;;;;;;11.73;2.50;;;;;;;10.09;76.47;102285.25;5094096;28;20124;-68
2022/02/08 15:31:42;;;;;;;13.63;2.40;;;;;;;10.10;76.79;102275.50;5090653;28;20045;-68
2022/02/08 15:34:08;;;;;;;10.35;2.50;;;;;;;10.16;76.88;102272.41;5057406;28;20040;-68
2022/02/08 15:36:35;;;;;;;10.10;2.50;;;;;;;10.13;77.35;102275.25;5090544;28;20040;-68
2022/02/08 15:39:07;;;;;;;11.48;2.67;;;;;;;10.19;77.39;102269.53;5074870;28;20047;-70
2022/02/08 15:41:38;;;;;;;10.90;2.25;;;;;;;10.07;77.55;102270.44;5093452;28;20052;-69
2022/02/08 15:44:08;;;;;;;10.57;2.42;;;;;;;10.03;78.13;102269.81;5072559;28;20495;-69
2022/02/08 15:46:36;;;;;;;8.60;2.85;;;;;;;10.06;77.78;102274.91;5090821;28;20093;-70
2022/02/08 15:49:03;;;;;;;7.63;2.50;;;;;;;9.76;78.87;102273.50;5075460;28;20032;-69
2022/02/08 15:51:39;;;;;;;8.13;2.70;;;;;;;9.99;78.56;102281.59;5091707;28;20523;-69
2022/02/08 15:54:14;;;;;;;9.75;2.95;;;;;;;10.09;78.26;102277.28;5092998;28;20585;-70
2022/02/08 16:05:50;;;;;;;13.73;3.20;;;;;;;9.84;79.58;102282.72;5039054;28;20044;-69
2022/02/08 16:08:13;;;;;;;7.93;2.55;;;;;;;9.93;79.33;102282.03;5088750;28;20047;-69
2022/02/08 16:10:59;;;;;;;8.80;2.88;;;;;;;9.77;80.05;102290.28;5079194;28;20044;-69
2022/02/08 16:13:43;;;;;;;11.95;3.08;;;;;;;9.90;79.92;102291.06;5075412;28;20051;-69
2022/02/08 16:22:14;;;;;;;7.68;3.13;;;;;;;9.95;79.68;102290.72;5086127;28;20096;-69
2022/02/08 16:27:22;;;;;;;8.25;3.10;;;;;;;9.97;79.80;102289.66;5085703;28;20043;-69
2022/02/08 16:52:50;;;;;;;7.97;2.85;;;;;;;9.71;81.07;102303.94;5066103;28;20040;-69
2022/02/08 16:54:56;;;;;;;10.00;2.90;;;;;;;9.66;80.90;102304.31;5098282;28;20057;-69
2022/02/08 16:57:53;;;;;;;11.93;3.33;;;;;;;9.65;81.11;102307.91;5051731;28;20155;-68
2022/02/08 17:00:14;;;;;;;9.20;2.97;;;;;;;9.69;80.85;102297.91;5121122;28;20044;-69
2022/02/08 17:02:48;;;;;;;9.57;2.70;;;;;;;9.53;81.15;102304.34;5074299;28;20396;-69
2022/02/08 17:05:16;;;;;;;8.32;3.00;;;;;;;9.72;80.26;102311.81;5075673;28;20377;-69
2022/02/08 17:07:43;;;;;;;7.47;3.28;;;;;;;9.58;81.21;102312.78;5091631;28;20086;-69
2022/02/08 17:10:24;;;;;;;11.02;3.28;;;;;;;9.68;80.65;102310.34;5098577;28;20039;-69
2022/02/08 17:13:02;;;;;;;10.98;3.20;;;;;;;9.58;81.25;102322.53;5106416;28;20040;-68
2022/02/08 17:15:56;;;;;;;9.55;3.25;;;;;;;9.58;81.60;102323.38;5103158;28;20066;-70
2022/02/08 17:46:13;;;;;;;12.63;3.42;;;;;;;9.61;81.37;102335.56;5094725;28;20078;-69